Time;durP1;ratioP1;P1;durP2;ratioP2;P2;SDS_P1;SDS_P2;PMS_P1;PMS_P2;Temp;Humidity;BMP_temperature;BMP_pressure;BME280_temperature;BME280_humidity;BME280_pressure;Samples;Min_cycle;Max_cycle;Signal;HPM_P1;HPM_P2
2021/05/23 00:02:06;;;;;;;5.60;3.87;;;;;;;14.49;100.00;101352.72;5058537;28;20438;-78
2021/05/23 00:04:32;;;;;;;7.37;3.70;;;;;;;14.46;100.00;101357.41;5069037;28;20476;-73
2021/05/23 00:06:58;;;;;;;5.00;3.23;;;;;;;14.39;100.00;101357.81;5051144;28;20405;-73
2021/05/23 00:09:24;;;;;;;7.47;4.20;;;;;;;14.35;100.00;101364.25;5055234;28;20556;-78
2021/05/23 00:11:49;;;;;;;7.70;4.33;;;;;;;14.32;100.00;101361.84;5069547;28;20412;-75
2021/05/23 00:14:18;;;;;;;7.53;4.00;;;;;;;14.38;100.00;101358.75;5064402;28;20958;-75
2021/05/23 00:16:43;;;;;;;6.53;4.30;;;;;;;14.41;100.00;101349.75;5076888;28;20163;-73
2021/05/23 00:19:09;;;;;;;9.20;5.73;;;;;;;14.50;100.00;101350.91;5077467;28;20394;-76
2021/05/23 00:21:34;;;;;;;6.83;3.07;;;;;;;14.55;100.00;101348.78;5065649;28;20188;-76
2021/05/23 00:24:00;;;;;;;5.50;3.23;;;;;;;14.55;100.00;101341.69;5067710;28;20574;-77
2021/05/23 00:26:26;;;;;;;6.00;3.40;;;;;;;14.41;100.00;101336.53;5060873;28;20180;-78
2021/05/23 00:28:52;;;;;;;5.90;3.40;;;;;;;14.29;100.00;101346.22;5058223;28;20403;-78
2021/05/23 00:31:18;;;;;;;6.53;4.07;;;;;;;14.23;100.00;101340.53;5067732;28;20611;-74
2021/05/23 00:33:44;;;;;;;6.00;3.67;;;;;;;14.16;100.00;101337.50;5071373;28;20484;-79
2021/05/23 00:36:10;;;;;;;8.33;5.70;;;;;;;14.15;100.00;101339.28;5077483;28;20430;-72
2021/05/23 00:38:35;;;;;;;12.10;7.87;;;;;;;14.19;100.00;101339.06;5072485;28;20179;-78
2021/05/23 00:41:01;;;;;;;81.00;41.20;;;;;;;14.19;100.00;101331.13;5075871;28;20454;-76
2021/05/23 00:43:27;;;;;;;109.00;58.60;;;;;;;14.22;100.00;101330.91;5065081;28;20214;-77
2021/05/23 00:45:53;;;;;;;109.53;59.07;;;;;;;14.19;100.00;101325.84;5061135;28;20458;-74
2021/05/23 00:48:21;;;;;;;119.60;64.77;;;;;;;14.10;100.00;101333.47;5057413;28;20889;-76
2021/05/23 00:50:47;;;;;;;137.37;83.03;;;;;;;14.12;100.00;101326.28;5076975;28;20407;-77
2021/05/23 00:53:13;;;;;;;111.77;72.80;;;;;;;14.16;100.00;101337.50;5072475;28;20493;-74
2021/05/23 00:55:40;;;;;;;95.90;58.80;;;;;;;14.13;100.00;101332.41;5064358;28;20417;-75
2021/05/23 00:58:07;;;;;;;77.17;53.40;;;;;;;14.08;100.00;101331.91;5067526;28;20859;-75
2021/05/23 01:00:35;;;;;;;72.47;46.60;;;;;;;14.05;100.00;101332.13;5076001;28;20430;-75
2021/05/23 01:03:02;;;;;;;54.77;37.30;;;;;;;14.16;100.00;101327.75;5076865;28;20415;-75
2021/05/23 01:05:28;;;;;;;76.07;50.57;;;;;;;14.02;100.00;101325.25;5075549;28;20866;-78
2021/05/23 01:07:54;;;;;;;51.40;32.33;;;;;;;14.14;100.00;101332.31;5076806;28;20387;-74
2021/05/23 01:10:21;;;;;;;42.43;26.53;;;;;;;14.18;100.00;101337.38;5075699;28;20444;-73
2021/05/23 01:12:53;;;;;;;39.13;23.20;;;;;;;14.10;100.00;101333.47;5075058;28;20160;-75
2021/05/23 01:15:33;;;;;;;29.77;18.83;;;;;;;14.13;100.00;101338.56;5072226;28;20410;-73
2021/05/23 01:18:02;;;;;;;24.87;14.20;;;;;;;14.08;100.00;101343.31;5077024;28;20398;-72
2021/05/23 01:20:57;;;;;;;19.13;11.67;;;;;;;14.04;100.00;101343.63;5065973;28;20457;-77
2021/05/23 01:23:30;;;;;;;18.80;10.60;;;;;;;13.95;100.00;101352.22;5061955;28;20468;-73
2021/05/23 01:26:03;;;;;;;16.40;7.90;;;;;;;13.93;100.00;101352.34;5067903;28;20460;-76
2021/05/23 01:28:32;;;;;;;10.90;6.53;;;;;;;13.89;100.00;101354.34;5060973;28;20506;-73
2021/05/23 01:30:58;;;;;;;10.10;6.67;;;;;;;13.84;100.00;101345.91;5060798;28;20406;-76
2021/05/23 01:33:23;;;;;;;12.00;6.63;;;;;;;13.80;100.00;101348.88;5054588;28;20431;-76
2021/05/23 01:35:56;;;;;;;14.53;8.20;;;;;;;13.87;100.00;101350.97;5062011;28;20168;-79
2021/05/23 01:38:23;;;;;;;14.43;9.97;;;;;;;13.78;100.00;101353.44;5071496;28;20212;-76
2021/05/23 01:40:51;;;;;;;15.87;9.80;;;;;;;13.73;100.00;101344.97;5073599;28;20784;-75
2021/05/23 01:43:19;;;;;;;17.20;9.10;;;;;;;13.86;100.00;101340.53;5073284;28;20924;-71
2021/05/23 01:45:45;;;;;;;18.00;9.57;;;;;;;13.97;100.00;101350.31;5072947;28;20865;-79
2021/05/23 01:48:12;;;;;;;9.00;6.60;;;;;;;14.00;100.00;101350.13;5072237;28;20401;-77
2021/05/23 01:50:38;;;;;;;11.33;7.17;;;;;;;14.00;100.00;101355.41;5063150;28;20422;-80
2021/05/23 01:53:05;;;;;;;11.73;6.57;;;;;;;14.01;100.00;101355.28;5063331;28;20189;-79
2021/05/23 01:55:32;;;;;;;8.63;5.73;;;;;;;14.04;100.00;101355.06;5053368;28;20457;-72
2021/05/23 01:57:58;;;;;;;10.30;5.90;;;;;;;14.01;100.00;101359.72;5067652;28;20407;-73
2021/05/23 02:00:29;;;;;;;8.40;5.57;;;;;;;13.89;100.00;101356.97;5054397;28;20789;-79
2021/05/23 02:02:54;;;;;;;12.10;6.33;;;;;;;13.88;100.00;101352.66;5053514;28;20918;-79
2021/05/23 02:05:20;;;;;;;7.13;4.13;;;;;;;13.80;100.00;101348.88;5064457;28;20438;-73
2021/05/23 02:07:46;;;;;;;7.90;4.87;;;;;;;13.81;100.00;101356.69;5072488;28;20161;-78
2021/05/23 02:10:16;;;;;;;8.17;4.90;;;;;;;13.84;100.00;101355.66;5073313;28;20162;-76
2021/05/23 02:12:44;;;;;;;7.87;4.80;;;;;;;13.82;100.00;101347.81;5070524;28;20161;-80
2021/05/23 02:15:11;;;;;;;6.87;4.30;;;;;;;13.86;100.00;101348.44;5064097;28;20997;-76
2021/05/23 02:17:38;;;;;;;6.47;4.47;;;;;;;13.88;100.00;101359.75;5054347;28;20408;-78
2021/05/23 02:20:10;;;;;;;8.77;4.70;;;;;;;14.01;100.00;101357.94;5052651;28;20398;-76
2021/05/23 02:22:44;;;;;;;9.23;5.57;;;;;;;14.04;100.00;101360.34;5067900;28;20447;-77
2021/05/23 02:25:12;;;;;;;7.97;5.47;;;;;;;14.11;100.00;101356.31;5071837;28;20964;-78
2021/05/23 02:27:40;;;;;;;7.70;5.37;;;;;;;14.06;100.00;101363.75;5072945;28;20481;-72
2021/05/23 02:30:08;;;;;;;13.47;7.17;;;;;;;13.98;100.00;101355.50;5054546;28;20917;-76
2021/05/23 02:32:35;;;;;;;13.17;7.13;;;;;;;13.95;100.00;101361.00;5055219;28;20419;-78
2021/05/23 02:35:00;;;;;;;12.87;7.87;;;;;;;13.94;100.00;101364.59;5060872;28;20412;-73
2021/05/23 02:37:26;;;;;;;11.30;8.10;;;;;;;13.94;100.00;101361.13;5072544;28;20398;-73
2021/05/23 02:39:51;;;;;;;12.13;6.97;;;;;;;13.89;100.00;101356.97;5071780;28;20303;-77
2021/05/23 02:42:17;;;;;;;11.70;7.23;;;;;;;13.88;100.00;101367.66;5070682;28;20161;-76
2021/05/23 02:44:42;;;;;;;9.97;7.37;;;;;;;13.89;100.00;101364.91;5072244;28;20194;-73
2021/05/23 02:47:08;;;;;;;14.87;9.33;;;;;;;13.99;100.00;101369.56;5071830;28;20549;-74
2021/05/23 02:49:37;;;;;;;14.70;8.00;;;;;;;14.04;100.00;101367.41;5072233;28;20229;-73
2021/05/23 02:52:03;;;;;;;13.50;8.33;;;;;;;13.98;100.00;101365.22;5070334;28;20200;-79
2021/05/23 02:54:29;;;;;;;12.03;8.63;;;;;;;14.12;100.00;101368.56;5072006;28;20442;-77
2021/05/23 02:56:54;;;;;;;14.10;7.63;;;;;;;14.19;100.00;101365.47;5056662;28;20502;-73
2021/05/23 02:59:20;;;;;;;11.70;9.23;;;;;;;14.15;100.00;101363.06;5059927;28;20184;-73
2021/05/23 03:01:45;;;;;;;14.17;10.10;;;;;;;14.11;100.00;101372.16;5065304;28;20255;-73
2021/05/23 03:04:11;;;;;;;16.10;8.90;;;;;;;14.21;100.00;101372.38;5059531;28;20642;-79
2021/05/23 03:06:36;;;;;;;15.50;8.90;;;;;;;14.22;100.00;101389.06;5051509;28;20165;-73
2021/05/23 03:09:02;;;;;;;14.97;8.10;;;;;;;14.27;100.00;101392.22;5053698;28;20183;-76
2021/05/23 03:11:27;;;;;;;15.70;8.80;;;;;;;14.30;100.00;101397.28;5066336;28;20193;-75
2021/05/23 03:13:53;;;;;;;14.77;8.73;;;;;;;14.31;100.00;101402.47;5051956;28;20557;-72
2021/05/23 03:16:18;;;;;;;19.07;11.80;;;;;;;14.28;100.00;101404.47;5068880;28;20608;-74
2021/05/23 03:18:44;;;;;;;24.10;12.90;;;;;;;14.32;100.00;101408.59;5070821;28;20226;-74
2021/05/23 03:21:09;;;;;;;17.37;11.40;;;;;;;14.29;100.00;101406.19;5070774;28;20581;-75
2021/05/23 03:23:35;;;;;;;23.97;11.53;;;;;;;14.26;100.00;101419.59;5071707;28;20160;-73
2021/05/23 03:26:00;;;;;;;19.53;11.37;;;;;;;14.34;100.00;101414.59;5068208;28;20738;-72
2021/05/23 03:28:26;;;;;;;15.00;10.17;;;;;;;14.33;100.00;101419.06;5063794;28;20255;-71
2021/05/23 03:30:51;;;;;;;15.10;10.23;;;;;;;14.41;100.00;101419.34;5054725;28;20172;-76
2021/05/23 03:33:17;;;;;;;16.70;10.20;;;;;;;14.35;100.00;101418.94;5051733;28;20180;-77
2021/05/23 03:35:43;;;;;;;16.33;9.03;;;;;;;14.42;100.00;101409.59;5066720;28;20172;-72
2021/05/23 03:38:09;;;;;;;14.17;9.00;;;;;;;14.50;100.00;101404.63;5071088;28;20419;-72
2021/05/23 03:40:36;;;;;;;13.50;9.27;;;;;;;14.49;100.00;101405.59;5071303;28;20701;-74
2021/05/23 03:43:03;;;;;;;16.60;9.80;;;;;;;14.40;100.00;101406.25;5070842;28;21092;-73
2021/05/23 03:45:29;;;;;;;11.33;9.07;;;;;;;14.30;100.00;101418.44;5062798;28;20510;-76
2021/05/23 03:47:54;;;;;;;19.57;9.30;;;;;;;14.27;100.00;101419.47;5070553;28;20447;-79
2021/05/23 03:50:23;;;;;;;17.33;8.93;;;;;;;14.26;100.00;101428.38;5069511;28;20259;-75
2021/05/23 03:52:51;;;;;;;12.00;8.57;;;;;;;14.30;100.00;101423.72;5070148;28;20703;-79
2021/05/23 03:55:18;;;;;;;14.03;8.93;;;;;;;14.30;100.00;101432.50;5070865;28;20419;-79
2021/05/23 03:57:44;;;;;;;13.37;9.40;;;;;;;14.39;100.00;101417.78;5053786;28;20412;-73
2021/05/23 04:00:11;;;;;;;13.93;9.30;;;;;;;14.41;100.00;101415.84;5051648;28;20435;-75
2021/05/23 04:02:37;;;;;;;13.03;9.30;;;;;;;14.38;100.00;101419.56;5051342;28;20924;-76
2021/05/23 04:05:04;;;;;;;21.50;8.93;;;;;;;14.48;100.00;101417.13;5059037;28;20455;-78
2021/05/23 04:07:29;;;;;;;13.90;8.23;;;;;;;14.60;100.00;101420.72;5052378;28;20169;-72
2021/05/23 04:09:56;;;;;;;20.13;9.40;;;;;;;14.58;100.00;101430.53;5064484;28;20476;-72
2021/05/23 04:12:37;;;;;;;16.40;8.83;;;;;;;14.60;100.00;101436.56;5052024;28;20219;-79
2021/05/23 04:15:04;;;;;;;14.70;8.57;;;;;;;14.67;100.00;101430.72;5057319;28;20966;-74
2021/05/23 04:17:29;;;;;;;12.93;8.67;;;;;;;14.79;100.00;101433.41;5070955;28;20421;-77
2021/05/23 04:19:55;;;;;;;16.30;8.60;;;;;;;14.90;100.00;101439.63;5070974;28;20489;-76
2021/05/23 04:22:21;;;;;;;11.30;8.20;;;;;;;15.02;100.00;101442.31;5065125;28;20160;-77
2021/05/23 04:24:46;;;;;;;16.60;9.40;;;;;;;15.10;100.00;101446.06;5057610;28;20277;-77
2021/05/23 04:27:12;;;;;;;19.83;8.57;;;;;;;15.19;100.00;101441.91;5050757;28;20169;-77
2021/05/23 04:29:38;;;;;;;14.77;8.70;;;;;;;15.23;100.00;101440.72;5052111;28;20180;-76
2021/05/23 04:32:07;;;;;;;9.70;7.40;;;;;;;15.32;100.00;101447.13;5050231;28;20545;-76
2021/05/23 04:34:37;;;;;;;13.93;7.10;;;;;;;15.40;100.00;101455.31;5065091;28;20660;-74
2021/05/23 04:37:04;;;;;;;10.93;7.80;;;;;;;15.42;100.00;101451.63;5070699;28;20420;-75
2021/05/23 04:39:29;;;;;;;11.50;7.50;;;;;;;15.42;100.00;101456.06;5068645;28;20874;-76
2021/05/23 04:41:55;;;;;;;12.47;7.97;;;;;;;15.50;100.00;101457.19;5063635;28;20946;-74
2021/05/23 04:44:20;;;;;;;11.43;7.80;;;;;;;15.64;100.00;101465.88;5065279;28;20172;-73
2021/05/23 04:46:46;;;;;;;15.70;8.40;;;;;;;15.66;100.00;101458.69;5055654;28;20239;-77
2021/05/23 04:49:11;;;;;;;14.83;8.40;;;;;;;15.84;100.00;101465.22;5054996;28;20626;-74
2021/05/23 04:51:37;;;;;;;17.13;8.87;;;;;;;15.88;100.00;101463.19;5060108;28;20253;-75
2021/05/23 04:54:03;;;;;;;13.47;8.37;;;;;;;15.92;100.00;101461.97;5068600;28;20259;-74
2021/05/23 04:56:29;;;;;;;13.93;8.50;;;;;;;15.97;100.00;101473.06;5054810;28;20256;-76
2021/05/23 04:58:54;;;;;;;9.67;7.50;;;;;;;16.11;100.00;101470.19;5067577;28;20571;-76
2021/05/23 05:01:20;;;;;;;13.37;8.57;;;;;;;16.11;100.00;101474.66;5074427;28;20267;-73
2021/05/23 05:03:45;;;;;;;20.33;8.30;;;;;;;16.13;100.00;101473.53;5074215;28;20160;-76
2021/05/23 05:06:11;;;;;;;10.13;8.37;;;;;;;16.16;100.00;101475.94;5074036;28;20571;-78
2021/05/23 05:08:36;;;;;;;17.37;8.80;;;;;;;16.39;100.00;101476.78;5068609;28;20757;-78
2021/05/23 05:11:02;;;;;;;13.20;8.97;;;;;;;16.45;100.00;101473.66;5054519;28;20668;-73
2021/05/23 05:13:28;;;;;;;12.57;7.20;;;;;;;16.52;100.00;101476.66;5055477;28;20160;-75
2021/05/23 05:15:53;;;;;;;15.13;8.13;;;;;;;16.69;100.00;101475.28;5058480;28;20427;-75
2021/05/23 05:18:19;;;;;;;11.23;7.13;;;;;;;16.86;100.00;101482.78;5072562;28;20184;-76
2021/05/23 05:20:45;;;;;;;12.60;7.93;;;;;;;16.95;100.00;101486.50;5067311;28;20179;-72
2021/05/23 05:23:10;;;;;;;10.23;7.00;;;;;;;16.95;100.00;101482.03;5068636;28;20179;-71
2021/05/23 05:25:36;;;;;;;12.47;6.97;;;;;;;17.08;100.00;101485.38;5073642;28;20192;-72
2021/05/23 05:28:01;;;;;;;15.80;7.97;;;;;;;17.23;100.00;101485.06;5069725;28;20169;-72
2021/05/23 05:30:27;;;;;;;11.20;6.80;;;;;;;17.29;100.00;101480.06;5071440;28;20168;-73
2021/05/23 05:32:53;;;;;;;8.07;6.90;;;;;;;17.47;100.00;101477.72;5065373;28;20710;-75
2021/05/23 05:35:18;;;;;;;12.63;8.00;;;;;;;17.65;100.00;101486.78;5056566;28;20176;-74
2021/05/23 05:37:44;;;;;;;9.13;6.47;;;;;;;17.77;100.00;101479.63;5065244;28;20164;-72
2021/05/23 05:40:10;;;;;;;14.63;7.47;;;;;;;17.86;100.00;101483.31;5062841;28;20779;-76
2021/05/23 05:42:36;;;;;;;15.27;7.90;;;;;;;18.01;100.00;101488.16;5067212;28;20196;-71
2021/05/23 05:45:02;;;;;;;11.60;8.10;;;;;;;18.10;100.00;101491.00;5064829;28;20450;-76
2021/05/23 05:47:27;;;;;;;14.00;8.27;;;;;;;18.27;100.00;101488.53;5058309;28;20582;-70
2021/05/23 05:49:53;;;;;;;10.83;8.40;;;;;;;18.41;100.00;101490.00;5053109;28;20252;-72
2021/05/23 05:52:19;;;;;;;14.90;9.50;;;;;;;18.45;100.00;101491.44;5053676;28;20601;-73
2021/05/23 05:54:45;;;;;;;12.50;8.43;;;;;;;18.57;100.00;101494.81;5060756;28;20425;-73
2021/05/23 05:57:11;;;;;;;17.83;9.40;;;;;;;18.65;100.00;101486.97;5059085;28;20454;-71
2021/05/23 05:59:37;;;;;;;9.00;6.90;;;;;;;18.73;100.00;101481.84;5058263;28;20869;-73
2021/05/23 06:02:02;;;;;;;8.03;6.67;;;;;;;18.86;100.00;101484.25;5070920;28;20263;-73
2021/05/23 06:04:28;;;;;;;9.00;6.00;;;;;;;19.02;100.00;101473.91;5070861;28;20254;-72
2021/05/23 06:06:53;;;;;;;7.00;5.67;;;;;;;19.17;100.00;101471.66;5070657;28;20171;-71
2021/05/23 06:09:19;;;;;;;7.23;5.27;;;;;;;19.26;100.00;101469.97;5070611;28;20157;-73
2021/05/23 06:11:44;;;;;;;6.77;5.50;;;;;;;19.34;100.00;101478.94;5068981;28;20164;-72
2021/05/23 06:14:10;;;;;;;9.10;4.80;;;;;;;19.43;100.00;101481.78;5069419;28;20231;-74
2021/05/23 06:16:35;;;;;;;12.20;5.30;;;;;;;19.54;100.00;101477.13;5073166;28;20239;-72
2021/05/23 06:19:01;;;;;;;7.37;5.40;;;;;;;19.67;100.00;101476.84;5071855;28;20168;-73
2021/05/23 06:21:26;;;;;;;6.93;4.93;;;;;;;19.77;100.00;101475.00;5070244;28;20164;-72
2021/05/23 06:23:52;;;;;;;8.20;5.10;;;;;;;19.90;100.00;101472.03;5063202;28;20164;-69
2021/05/23 06:26:17;;;;;;;12.87;7.37;;;;;;;19.86;100.00;101478.63;5070083;28;20619;-71
2021/05/23 06:28:43;;;;;;;15.03;8.47;;;;;;;19.78;100.00;101482.00;5070813;28;20161;-71
2021/05/23 06:31:09;;;;;;;9.53;8.53;;;;;;;19.68;100.00;101478.53;5065059;28;20161;-73
2021/05/23 06:33:35;;;;;;;10.80;9.20;;;;;;;19.64;100.00;101471.78;5067858;28;20153;-70
2021/05/23 06:36:01;;;;;;;15.90;7.60;;;;;;;19.71;100.00;101470.22;5065748;28;20897;-72
2021/05/23 06:38:26;;;;;;;12.13;8.70;;;;;;;19.80;100.00;101471.19;5051166;28;20487;-71
2021/05/23 06:40:52;;;;;;;10.77;7.87;;;;;;;19.89;100.00;101463.19;5065094;28;20403;-74
2021/05/23 06:43:18;;;;;;;11.70;8.33;;;;;;;19.95;100.00;101470.63;5071522;28;20167;-74
2021/05/23 06:45:43;;;;;;;15.70;8.60;;;;;;;20.00;100.00;101477.31;5068028;28;20246;-73
2021/05/23 06:48:09;;;;;;;11.07;8.13;;;;;;;20.06;100.00;101468.75;5058751;28;20275;-73
2021/05/23 06:50:37;;;;;;;17.17;9.23;;;;;;;20.04;100.00;101476.06;5061280;28;20533;-75
2021/05/23 06:53:03;;;;;;;9.97;7.63;;;;;;;20.00;100.00;101485.31;5064709;28;20417;-74
2021/05/23 06:55:28;;;;;;;8.93;8.03;;;;;;;19.95;100.00;101488.44;5065719;28;20402;-73
2021/05/23 06:57:54;;;;;;;7.17;6.47;;;;;;;19.85;100.00;101493.78;5070921;28;20168;-73
2021/05/23 07:00:19;;;;;;;12.20;5.67;;;;;;;19.85;100.00;101492.94;5071887;28;20172;-74
2021/05/23 07:02:45;;;;;;;6.73;5.03;;;;;;;19.78;100.00;101492.69;5060975;28;20817;-72
2021/05/23 07:05:11;;;;;;;6.67;5.27;;;;;;;19.72;100.00;101479.91;5051493;28;21002;-71
2021/05/23 07:07:37;;;;;;;9.10;5.57;;;;;;;19.71;100.00;101480.91;5051570;28;20161;-72
2021/05/23 07:10:04;;;;;;;9.00;6.80;;;;;;;19.67;100.00;101480.38;5067404;28;20412;-74
2021/05/23 07:12:29;;;;;;;12.83;6.60;;;;;;;19.70;100.00;101495.22;5070734;28;20210;-70
2021/05/23 07:14:55;;;;;;;7.87;5.50;;;;;;;19.70;100.00;101483.72;5069763;28;20733;-72
2021/05/23 07:17:20;;;;;;;8.30;6.63;;;;;;;19.80;100.00;101489.88;5070440;28;20191;-70
2021/05/23 07:19:49;;;;;;;8.67;6.90;;;;;;;19.82;100.00;101498.59;5057597;28;20194;-72
2021/05/23 07:22:14;;;;;;;8.40;5.50;;;;;;;19.92;100.00;101492.22;5067685;28;20169;-74
2021/05/23 07:24:40;;;;;;;7.57;6.70;;;;;;;19.97;100.00;101486.47;5051673;28;20442;-72
2021/05/23 07:27:06;;;;;;;11.50;6.43;;;;;;;20.02;100.00;101489.53;5057661;28;20161;-71
2021/05/23 07:29:31;;;;;;;8.30;6.30;;;;;;;20.08;100.00;101488.94;5059164;28;20251;-76
2021/05/23 07:31:58;;;;;;;7.63;5.47;;;;;;;19.99;100.00;101494.31;5070833;28;20157;-74
2021/05/23 07:34:24;;;;;;;7.57;5.43;;;;;;;20.03;100.00;101498.41;5070163;28;20242;-75
2021/05/23 07:36:49;;;;;;;8.50;6.47;;;;;;;20.09;100.00;101493.28;5071324;28;20486;-75
2021/05/23 07:39:15;;;;;;;8.07;6.57;;;;;;;20.10;100.00;101492.34;5070048;28;20216;-75
2021/05/23 07:41:40;;;;;;;7.60;6.37;;;;;;;20.08;100.00;101482.78;5066254;28;20534;-78
2021/05/23 07:44:06;;;;;;;14.40;7.70;;;;;;;20.07;100.00;101489.94;5049355;28;20252;-77
2021/05/23 07:46:31;;;;;;;13.13;7.60;;;;;;;19.98;100.00;101493.47;5053224;28;20208;-76
2021/05/23 07:48:57;;;;;;;10.87;9.07;;;;;;;19.98;100.00;101490.81;5050690;28;20149;-77
2021/05/23 07:51:23;;;;;;;10.07;8.43;;;;;;;20.02;100.00;101496.69;5054439;28;20171;-72
2021/05/23 07:53:48;;;;;;;8.80;7.60;;;;;;;20.11;100.00;101498.50;5070792;28;20152;-72
2021/05/23 07:56:14;;;;;;;12.57;8.23;;;;;;;20.27;100.00;101500.56;5062781;28;20161;-74
2021/05/23 07:58:39;;;;;;;13.53;6.10;;;;;;;20.16;100.00;101494.38;5053238;28;20164;-73
2021/05/23 08:01:05;;;;;;;7.00;5.60;;;;;;;20.39;100.00;101491.34;5050962;28;20184;-77
2021/05/23 08:03:30;;;;;;;7.97;6.83;;;;;;;20.34;100.00;101496.31;5051886;28;20180;-74
2021/05/23 08:05:56;;;;;;;10.40;6.97;;;;;;;20.43;100.00;101495.41;5050825;28;20193;-75
2021/05/23 08:08:22;;;;;;;10.53;9.30;;;;;;;20.52;100.00;101501.72;5059988;28;20644;-75
2021/05/23 08:10:47;;;;;;;11.20;8.93;;;;;;;20.48;100.00;101504.72;5070667;28;20635;-72
2021/05/23 08:13:13;;;;;;;10.57;8.53;;;;;;;20.40;100.00;101503.69;5069050;28;20403;-72
2021/05/23 08:15:41;;;;;;;9.70;8.70;;;;;;;20.43;100.00;101509.59;5053430;28;20165;-72
2021/05/23 08:18:08;;;;;;;9.57;8.57;;;;;;;20.49;100.00;101508.22;5049926;28;20392;-72
2021/05/23 08:20:33;;;;;;;13.53;9.97;;;;;;;20.47;100.00;101513.69;5050367;28;20481;-72
2021/05/23 08:22:59;;;;;;;9.10;7.90;;;;;;;20.60;100.00;101518.69;5050082;28;20713;-73
2021/05/23 08:25:24;;;;;;;9.00;6.60;;;;;;;20.64;100.00;101521.91;5049526;28;20292;-69
2021/05/23 08:27:50;;;;;;;11.80;8.27;;;;;;;20.73;100.00;101513.84;5061552;28;20588;-73
2021/05/23 08:30:16;;;;;;;10.60;8.77;;;;;;;20.85;100.00;101509.13;5063298;28;20654;-78
2021/05/23 08:32:41;;;;;;;11.77;8.33;;;;;;;20.89;100.00;101505.16;5071540;28;20161;-72
2021/05/23 08:35:10;;;;;;;7.70;6.90;;;;;;;20.98;100.00;101503.41;5053247;28;20233;-79
2021/05/23 08:37:35;;;;;;;12.33;8.67;;;;;;;21.21;100.00;101501.97;5053601;28;20161;-76
2021/05/23 08:40:01;;;;;;;13.77;9.80;;;;;;;21.37;100.00;101501.31;5053195;28;20466;-73
2021/05/23 08:42:28;;;;;;;9.80;8.20;;;;;;;21.46;100.00;101495.06;5053940;28;20156;-78
2021/05/23 08:44:54;;;;;;;9.43;7.60;;;;;;;21.60;100.00;101499.81;5053703;28;20193;-80
2021/05/23 08:47:20;;;;;;;13.07;7.73;;;;;;;21.74;100.00;101489.56;5061876;28;20441;-74
2021/05/23 08:49:50;;;;;;;9.53;7.63;;;;;;;21.75;100.00;101502.78;5073501;28;20452;-73
2021/05/23 08:52:17;;;;;;;8.43;6.90;;;;;;;21.83;100.00;101491.28;5073369;28;20477;-75
2021/05/23 08:54:43;;;;;;;12.00;7.10;;;;;;;21.95;100.00;101507.94;5061745;28;20836;-73
2021/05/23 08:57:09;;;;;;;9.50;8.03;;;;;;;21.88;100.00;101497.84;5070701;28;20406;-74
2021/05/23 08:59:34;;;;;;;10.13;7.47;;;;;;;21.99;100.00;101498.56;5073299;28;20434;-75
2021/05/23 09:02:06;;;;;;;7.83;7.03;;;;;;;22.02;100.00;101498.28;5056249;28;20231;-73
2021/05/23 09:04:33;;;;;;;7.33;6.63;;;;;;;22.16;100.00;101497.72;5053351;28;20639;-74
2021/05/23 09:07:05;;;;;;;10.30;6.70;;;;;;;22.26;100.00;101495.75;5053744;28;20416;-74
2021/05/23 09:09:41;;;;;;;7.47;6.20;;;;;;;22.13;100.00;101506.88;5073580;28;20399;-76
2021/05/23 09:12:09;;;;;;;11.80;6.37;;;;;;;22.23;100.00;101501.44;5073744;28;20437;-74
2021/05/23 09:14:37;;;;;;;9.43;6.10;;;;;;;22.33;100.00;101502.16;5072997;28;20858;-74
2021/05/23 09:17:05;;;;;;;10.43;6.93;;;;;;;22.50;100.00;101499.53;5074013;28;20449;-73
2021/05/23 09:19:42;;;;;;;8.10;6.63;;;;;;;22.47;100.00;101497.19;5073527;28;20542;-76
2021/05/23 09:22:13;;;;;;;14.10;7.50;;;;;;;22.52;100.00;101497.53;5073524;28;20783;-74
2021/05/23 09:24:54;;;;;;;8.13;6.83;;;;;;;22.54;100.00;101492.88;5073236;28;20446;-77
2021/05/23 09:27:21;;;;;;;8.80;7.00;;;;;;;22.45;100.00;101494.69;5073103;28;20403;-74
2021/05/23 09:29:47;;;;;;;7.90;7.10;;;;;;;22.40;100.00;101491.63;5073505;28;20776;-72
2021/05/23 09:32:15;;;;;;;8.43;6.80;;;;;;;22.54;100.00;101479.47;5073641;28;20418;-74
2021/05/23 09:34:41;;;;;;;9.10;7.63;;;;;;;22.59;100.00;101471.75;5073172;28;20830;-72
2021/05/23 09:37:14;;;;;;;8.10;5.80;;;;;;;22.76;100.00;101476.19;5071748;28;20468;-76
2021/05/23 09:39:41;;;;;;;7.57;6.13;;;;;;;22.85;100.00;101471.69;5072810;28;20247;-76
2021/05/23 09:42:11;;;;;;;5.87;5.03;;;;;;;22.90;100.00;101466.72;5072307;28;20491;-73
2021/05/23 09:44:38;;;;;;;9.93;8.03;;;;;;;22.94;100.00;101462.69;5073237;28;20396;-72
2021/05/23 09:47:14;;;;;;;6.33;5.70;;;;;;;23.08;100.00;101462.03;5072455;28;20410;-75
2021/05/23 09:49:46;;;;;;;10.70;6.50;;;;;;;22.96;100.00;101461.50;5072963;28;20394;-73
2021/05/23 09:52:17;;;;;;;11.50;6.63;;;;;;;23.00;100.00;101456.66;5072865;28;20804;-73
2021/05/23 09:54:52;;;;;;;11.30;7.30;;;;;;;23.12;100.00;101454.47;5072840;28;20896;-76
2021/05/23 09:57:20;;;;;;;6.90;6.03;;;;;;;23.20;100.00;101465.19;5072364;28;20501;-77
2021/05/23 09:59:57;;;;;;;6.80;5.90;;;;;;;23.09;100.00;101470.91;5072212;28;20430;-74
2021/05/23 10:02:23;;;;;;;7.20;5.50;;;;;;;23.20;100.00;101470.56;5072952;28;20993;-73
2021/05/23 10:04:48;;;;;;;7.80;7.00;;;;;;;23.22;100.00;101473.94;5066859;28;20435;-75
2021/05/23 10:07:14;;;;;;;9.90;5.90;;;;;;;23.23;100.00;101471.09;5066236;28;20218;-73
2021/05/23 10:09:40;;;;;;;7.73;5.83;;;;;;;23.35;100.00;101476.09;5072314;28;20275;-72
2021/05/23 10:12:09;;;;;;;7.17;5.87;;;;;;;23.22;100.00;101479.31;5052668;28;20192;-69
2021/05/23 10:14:35;;;;;;;7.33;6.60;;;;;;;23.56;100.00;101478.28;5052299;28;20391;-75
2021/05/23 10:17:03;;;;;;;7.97;6.10;;;;;;;23.69;100.00;101473.28;5052804;28;20821;-76
2021/05/23 10:19:32;;;;;;;9.00;6.77;;;;;;;23.76;100.00;101485.00;5052665;28;20387;-74
2021/05/23 10:22:01;;;;;;;12.20;7.83;;;;;;;23.76;100.00;101476.94;5053618;28;20391;-76
2021/05/23 10:24:32;;;;;;;7.40;5.70;;;;;;;23.70;100.00;101481.16;5072016;28;20398;-73
2021/05/23 10:27:01;;;;;;;5.70;4.77;;;;;;;23.78;100.00;101469.56;5072373;28;20810;-75
2021/05/23 10:29:27;;;;;;;6.90;5.17;;;;;;;23.77;100.00;101471.41;5071199;28;20828;-70
2021/05/23 10:32:12;;;;;;;5.87;3.87;;;;;;;23.71;100.00;101468.56;5072296;28;20414;-74
2021/05/23 10:34:43;;;;;;;4.97;3.90;;;;;;;23.87;100.00;101471.22;5071961;28;20402;-71
2021/05/23 10:37:10;;;;;;;6.57;3.97;;;;;;;24.00;100.00;101473.38;5052108;28;20901;-76
2021/05/23 10:39:51;;;;;;;5.50;3.80;;;;;;;24.10;100.00;101479.38;5052055;28;20486;-74
2021/05/23 10:42:17;;;;;;;5.10;3.80;;;;;;;24.14;100.00;101478.03;5051852;28;20525;-75
2021/05/23 10:44:48;;;;;;;6.03;4.33;;;;;;;24.16;100.00;101475.16;5052378;28;20885;-73
2021/05/23 10:47:26;;;;;;;5.40;4.30;;;;;;;24.16;100.00;101477.84;5054881;28;20387;-73
2021/05/23 10:49:57;;;;;;;5.70;4.57;;;;;;;24.23;100.00;101468.91;5071733;28;20390;-72
2021/05/23 10:52:27;;;;;;;8.10;5.00;;;;;;;24.08;100.00;101474.16;5071622;28;20869;-74
2021/05/23 10:55:05;;;;;;;5.63;4.10;;;;;;;23.91;100.00;101463.66;5071813;28;20847;-71
2021/05/23 10:57:45;;;;;;;6.57;4.73;;;;;;;23.88;100.00;101456.81;5071202;28;20395;-73
2021/05/23 11:00:34;;;;;;;6.97;5.73;;;;;;;23.87;100.00;101465.84;5071966;28;20423;-74
2021/05/23 11:03:10;;;;;;;8.10;5.37;;;;;;;23.79;100.00;101468.53;5070880;28;20426;-71
2021/05/23 11:05:36;;;;;;;8.53;4.90;;;;;;;23.85;100.00;101472.41;5071080;28;20499;-74
2021/05/23 11:08:04;;;;;;;7.20;5.90;;;;;;;23.68;100.00;101471.59;5069886;28;20434;-71
2021/05/23 11:10:40;;;;;;;8.83;5.70;;;;;;;23.81;100.00;101469.22;5071298;28;20172;-73
2021/05/23 11:13:07;;;;;;;6.53;5.30;;;;;;;23.70;100.00;101474.94;5071353;28;20803;-74